createdAt,value
2019-01-13T00:00:11.644Z,31.40
2019-01-13T00:01:08.428Z,31.40
2019-01-13T00:02:07.126Z,32.40
2019-01-13T00:03:07.174Z,37.60
2019-01-13T00:04:07.718Z,31.30
2019-01-13T00:05:06.715Z,30.30
2019-01-13T00:06:06.960Z,32.30
2019-01-13T00:07:07.334Z,31.90
2019-01-13T00:08:07.399Z,31.90
2019-01-13T00:09:06.708Z,33.70
2019-01-13T00:10:07.315Z,32.50
2019-01-13T00:11:06.734Z,36.00
2019-01-13T00:12:07.349Z,32.50
2019-01-13T00:13:07.476Z,30.20
2019-01-13T00:14:06.628Z,35.10
2019-01-13T00:15:07.047Z,28.90
2019-01-13T00:16:07.421Z,33.40
2019-01-13T00:17:06.631Z,33.00
2019-01-13T00:18:06.745Z,32.20
2019-01-13T00:19:06.572Z,30.50
2019-01-13T00:20:07.331Z,33.70
2019-01-13T00:21:07.327Z,25.60
2019-01-13T00:23:08.822Z,32.60
2019-01-13T00:24:06.553Z,30.70
2019-01-13T00:25:06.553Z,34.00
2019-01-13T00:26:06.576Z,31.00
2019-01-13T00:27:06.462Z,28.60
2019-01-13T00:28:07.340Z,33.00
2019-01-13T00:29:08.127Z,31.40
2019-01-13T00:30:06.491Z,28.50
2019-01-13T00:31:07.921Z,29.80
2019-01-13T00:32:06.501Z,29.00
2019-01-13T00:34:07.679Z,35.00
2019-01-13T00:35:06.389Z,33.10
2019-01-13T00:36:06.778Z,27.60
2019-01-13T00:37:07.345Z,28.80
2019-01-13T00:38:06.391Z,29.60
2019-01-13T00:39:11.208Z,33.40
2019-01-13T00:40:08.342Z,32.10
2019-01-13T00:41:06.321Z,28.70
2019-01-13T00:42:06.412Z,31.30
2019-01-13T00:43:06.824Z,26.40
2019-01-13T00:44:06.853Z,30.10
2019-01-13T00:45:06.718Z,34.10
2019-01-13T00:46:06.900Z,32.30
2019-01-13T00:47:06.612Z,32.70
2019-01-13T00:48:06.247Z,28.80
2019-01-13T00:49:06.258Z,31.60
2019-01-13T00:50:07.039Z,33.20
2019-01-13T00:51:06.441Z,29.70
2019-01-13T00:52:06.353Z,29.50
2019-01-13T00:53:07.053Z,34.80
2019-01-13T00:54:06.475Z,33.70
2019-01-13T00:55:08.395Z,33.30
2019-01-13T00:56:06.161Z,30.90
2019-01-13T00:57:06.210Z,31.00
2019-01-13T00:58:06.662Z,32.50
2019-01-13T00:59:06.693Z,29.50
2019-01-13T01:01:07.405Z,32.20
2019-01-13T01:02:06.222Z,35.10
2019-01-13T01:03:06.152Z,30.20
2019-01-13T01:04:06.155Z,30.10
2019-01-13T01:05:07.008Z,33.90
2019-01-13T01:06:06.134Z,34.10
2019-01-13T01:07:06.842Z,32.10
2019-01-13T01:08:06.111Z,30.10
2019-01-13T01:09:06.045Z,28.10
2019-01-13T01:10:06.832Z,30.40
2019-01-13T01:11:07.105Z,32.90
2019-01-13T01:12:06.007Z,32.10
2019-01-13T01:13:06.333Z,26.50
2019-01-13T01:14:06.233Z,33.00
2019-01-13T01:15:06.070Z,35.10
2019-01-13T01:16:06.318Z,29.60
2019-01-13T01:17:05.955Z,30.90
2019-01-13T01:18:06.007Z,33.80
2019-01-13T01:19:06.262Z,29.50
2019-01-13T01:20:05.931Z,28.30
2019-01-13T01:21:06.144Z,27.40
2019-01-13T01:22:05.965Z,32.50
2019-01-13T01:23:05.871Z,30.90
2019-01-13T01:24:06.018Z,29.00
2019-01-13T01:25:05.858Z,32.10
2019-01-13T01:26:06.834Z,31.50
2019-01-13T01:27:05.894Z,30.40
2019-01-13T01:28:05.853Z,37.80
2019-01-13T01:29:06.337Z,32.30
2019-01-13T01:30:06.143Z,29.20
2019-01-13T01:31:05.794Z,29.90
2019-01-13T01:32:06.003Z,27.00
2019-01-13T01:33:06.211Z,31.90
2019-01-13T01:34:06.532Z,29.60
2019-01-13T01:35:05.777Z,29.10
2019-01-13T01:36:05.813Z,29.10
2019-01-13T01:37:05.863Z,32.90
2019-01-13T01:38:05.923Z,33.10
2019-01-13T01:39:05.775Z,30.50
2019-01-13T01:40:06.337Z,32.10
2019-01-13T01:41:05.771Z,31.30
2019-01-13T01:42:05.680Z,29.90
2019-01-13T01:43:06.021Z,31.90
2019-01-13T01:44:05.877Z,29.30
2019-01-13T01:45:05.644Z,29.70
2019-01-13T01:46:05.688Z,31.00
2019-01-13T01:47:05.608Z,27.80
2019-01-13T01:48:06.011Z,32.30
2019-01-13T01:49:05.734Z,30.20
2019-01-13T01:50:05.628Z,33.40
2019-01-13T01:51:05.633Z,29.50
2019-01-13T01:52:05.562Z,28.20
2019-01-13T01:54:07.163Z,30.00
2019-01-13T01:55:05.722Z,26.00
2019-01-13T01:56:06.551Z,29.80
2019-01-13T01:57:06.351Z,29.90
2019-01-13T01:58:05.561Z,29.50
2019-01-13T01:59:06.847Z,29.20
2019-01-13T02:00:06.365Z,26.50
2019-01-13T02:01:05.464Z,29.90
2019-01-13T02:02:06.624Z,27.10
2019-01-13T02:03:06.835Z,28.00
2019-01-13T02:04:05.624Z,24.90
2019-01-13T02:05:05.804Z,29.60
2019-01-13T02:06:05.706Z,28.40
2019-01-13T02:07:05.743Z,28.70
2019-01-13T02:08:05.464Z,29.70
2019-01-13T02:09:05.784Z,27.60
2019-01-13T02:10:05.757Z,25.80
2019-01-13T02:11:05.389Z,28.30
2019-01-13T02:12:05.383Z,29.30
2019-01-13T02:13:05.757Z,27.10
2019-01-13T02:14:05.846Z,29.30
2019-01-13T02:15:05.660Z,28.90
2019-01-13T02:16:05.387Z,28.30
2019-01-13T02:17:05.306Z,23.40
2019-01-13T02:18:05.932Z,25.80
2019-01-13T02:19:05.849Z,28.70
2019-01-13T02:20:05.357Z,26.60
2019-01-13T02:21:05.411Z,28.40
2019-01-13T02:22:05.296Z,26.60
2019-01-13T02:23:05.295Z,25.80
2019-01-13T02:24:05.288Z,28.10
2019-01-13T02:25:05.228Z,25.00
2019-01-13T02:26:05.857Z,28.80
2019-01-13T02:27:05.857Z,29.10
2019-01-13T02:28:05.388Z,26.10
2019-01-13T02:29:05.619Z,26.90
2019-01-13T02:30:05.240Z,27.00
2019-01-13T02:31:05.454Z,26.40
2019-01-13T02:32:05.190Z,25.20
2019-01-13T02:33:05.150Z,26.30
2019-01-13T02:34:05.189Z,26.90
2019-01-13T02:35:06.057Z,29.10
2019-01-13T02:36:05.989Z,26.20
2019-01-13T02:37:05.083Z,26.90
2019-01-13T02:38:05.981Z,26.20
2019-01-13T02:39:05.984Z,24.70
2019-01-13T02:40:05.166Z,26.90
2019-01-13T02:42:06.850Z,28.20
2019-01-13T02:43:05.169Z,26.70
2019-01-13T02:44:05.855Z,24.90
2019-01-13T02:45:06.400Z,25.30
2019-01-13T02:46:06.024Z,24.40
2019-01-13T02:47:05.329Z,21.80
2019-01-13T02:48:04.974Z,24.10
2019-01-13T02:49:06.126Z,23.80
2019-01-13T02:50:05.858Z,19.90
2019-01-13T02:51:06.031Z,21.00
2019-01-13T02:52:05.223Z,21.70
2019-01-13T02:53:05.871Z,23.50
2019-01-13T02:54:07.397Z,23.40
2019-01-13T02:55:05.509Z,20.50
2019-01-13T02:56:05.035Z,19.10
2019-01-13T02:57:05.163Z,22.40
2019-01-13T02:58:06.397Z,19.60
2019-01-13T02:59:04.841Z,23.00
2019-01-13T03:00:05.023Z,21.60
2019-01-13T03:01:05.487Z,20.10
2019-01-13T03:02:04.839Z,21.00
2019-01-13T03:03:05.029Z,18.90
2019-01-13T03:04:05.427Z,18.50
2019-01-13T03:05:04.793Z,19.70
2019-01-13T03:06:05.137Z,20.00
2019-01-13T03:07:05.137Z,19.60
2019-01-13T03:08:05.897Z,19.40
2019-01-13T03:09:05.799Z,18.90
2019-01-13T03:10:04.861Z,20.80
2019-01-13T03:11:05.237Z,19.80
2019-01-13T03:12:06.541Z,21.20
2019-01-13T03:13:05.182Z,17.50
2019-01-13T03:14:05.388Z,18.60
2019-01-13T03:15:05.447Z,19.30
2019-01-13T03:16:04.753Z,17.40
2019-01-13T03:18:05.705Z,16.60
2019-01-13T03:19:05.621Z,16.70
2019-01-13T03:20:05.758Z,18.20
2019-01-13T03:21:04.619Z,17.30
2019-01-13T03:22:05.820Z,17.90
2019-01-13T03:23:06.005Z,16.70
2019-01-13T03:24:04.654Z,16.80
2019-01-13T03:25:04.818Z,16.70
2019-01-13T03:26:04.658Z,17.20
2019-01-13T03:28:15.882Z,16.60
2019-01-13T03:29:15.776Z,15.40
2019-01-13T03:30:15.832Z,15.80
2019-01-13T03:31:15.752Z,15.60
2019-01-13T03:32:15.667Z,16.20
2019-01-13T03:33:15.662Z,18.10
2019-01-13T03:34:15.658Z,14.80
2019-01-13T03:35:15.635Z,16.40
2019-01-13T03:36:15.644Z,17.00
2019-01-13T03:37:15.635Z,15.40
2019-01-13T03:38:15.613Z,15.30
2019-01-13T03:39:15.601Z,14.00
2019-01-13T03:40:15.588Z,15.40
2019-01-13T03:41:15.602Z,13.60
2019-01-13T03:42:15.596Z,16.80
2019-01-13T03:43:15.551Z,14.40
2019-01-13T03:44:15.568Z,16.80
2019-01-13T03:45:15.530Z,14.90
2019-01-13T03:46:15.513Z,15.50
2019-01-13T03:47:15.547Z,14.10
2019-01-13T03:48:15.500Z,14.20
2019-01-13T03:49:15.490Z,15.50
2019-01-13T03:50:15.487Z,12.40
2019-01-13T03:51:15.468Z,17.20
2019-01-13T03:52:15.459Z,15.80
2019-01-13T03:53:15.500Z,14.90
2019-01-13T03:54:15.515Z,15.00
2019-01-13T03:55:15.436Z,14.30
2019-01-13T03:56:15.428Z,13.50
2019-01-13T03:57:15.411Z,13.90
2019-01-13T03:58:15.412Z,12.40
2019-01-13T03:59:15.414Z,14.20
2019-01-13T04:00:15.385Z,14.90
2019-01-13T04:01:18.672Z,14.80
2019-01-13T04:02:15.377Z,15.30
2019-01-13T04:03:15.362Z,13.90
2019-01-13T04:04:15.335Z,15.70
2019-01-13T04:05:15.329Z,18.40
2019-01-13T04:06:15.306Z,15.10
2019-01-13T04:07:15.307Z,13.80
2019-01-13T04:08:15.333Z,15.80
2019-01-13T04:09:15.317Z,15.10
2019-01-13T04:10:15.266Z,15.50
2019-01-13T04:11:15.256Z,14.70
2019-01-13T04:12:15.252Z,15.50
2019-01-13T04:13:15.234Z,16.20
2019-01-13T04:14:15.267Z,16.90
2019-01-13T04:15:15.224Z,14.40
2019-01-13T04:16:15.205Z,13.90
2019-01-13T04:17:15.201Z,16.30
2019-01-13T04:18:15.185Z,15.90
2019-01-13T04:19:15.187Z,15.50
2019-01-13T04:20:15.219Z,15.10
2019-01-13T04:21:15.163Z,15.40
2019-01-13T04:22:15.143Z,13.80
2019-01-13T04:23:15.144Z,14.80
2019-01-13T04:24:15.209Z,13.30
2019-01-13T04:25:15.128Z,13.70
2019-01-13T04:26:15.100Z,16.00
2019-01-13T04:27:15.097Z,14.90
2019-01-13T04:28:15.076Z,15.00
2019-01-13T04:29:15.110Z,14.60
2019-01-13T04:30:15.077Z,14.00
2019-01-13T04:31:15.052Z,13.70
2019-01-13T04:32:15.054Z,13.70
2019-01-13T04:33:15.042Z,13.30
2019-01-13T04:34:15.040Z,14.00
2019-01-13T04:35:15.004Z,12.70
2019-01-13T04:36:14.997Z,14.80
2019-01-13T04:37:14.985Z,13.10
2019-01-13T04:38:14.966Z,15.60
2019-01-13T04:39:15.003Z,14.60
2019-01-13T04:40:14.955Z,15.50
2019-01-13T04:41:14.938Z,14.10
2019-01-13T04:42:14.932Z,13.40
2019-01-13T04:43:14.922Z,14.90
2019-01-13T04:44:14.959Z,15.00
2019-01-13T04:45:14.926Z,14.00
2019-01-13T04:46:14.894Z,14.00
2019-01-13T04:47:14.884Z,14.00
2019-01-13T04:48:14.894Z,13.90
2019-01-13T04:49:14.879Z,14.30
2019-01-13T04:50:14.872Z,14.40
2019-01-13T04:51:14.858Z,14.20
2019-01-13T04:52:14.831Z,15.10
2019-01-13T04:53:14.828Z,15.80
2019-01-13T04:54:14.820Z,14.30
2019-01-13T04:55:14.826Z,15.60
2019-01-13T04:56:14.788Z,14.20
2019-01-13T04:57:14.772Z,15.40
2019-01-13T04:58:14.802Z,15.00
2019-01-13T04:59:14.751Z,14.50
2019-01-13T05:00:14.769Z,14.50
2019-01-13T05:01:14.740Z,15.20
2019-01-13T05:02:14.751Z,13.90
2019-01-13T05:03:14.710Z,14.40
2019-01-13T05:04:14.706Z,16.20
2019-01-13T05:05:14.710Z,15.00
2019-01-13T05:06:14.676Z,14.10
2019-01-13T05:07:14.668Z,14.70
2019-01-13T05:08:14.672Z,14.70
2019-01-13T05:09:14.677Z,13.80
2019-01-13T05:10:14.658Z,16.20
2019-01-13T05:11:14.630Z,15.00
2019-01-13T05:12:14.625Z,14.70
2019-01-13T05:13:14.655Z,15.70
2019-01-13T05:14:14.601Z,15.00
2019-01-13T05:15:14.612Z,15.20
2019-01-13T05:16:14.595Z,14.50
2019-01-13T05:17:14.608Z,14.20
2019-01-13T05:18:14.556Z,14.60
2019-01-13T05:19:14.557Z,15.90
2019-01-13T05:20:14.535Z,14.60
2019-01-13T05:21:14.541Z,13.70
2019-01-13T05:22:14.513Z,13.90
2019-01-13T05:23:14.565Z,13.30
2019-01-13T05:24:14.497Z,13.60
2019-01-13T05:25:14.486Z,13.70
2019-01-13T05:26:14.518Z,12.00
2019-01-13T05:27:14.459Z,12.40
2019-01-13T05:28:14.452Z,13.30
2019-01-13T05:29:14.467Z,13.90
2019-01-13T05:30:14.444Z,14.50
2019-01-13T05:31:14.485Z,12.80
2019-01-13T05:32:14.413Z,13.30
2019-01-13T05:33:14.397Z,12.80
2019-01-13T05:34:14.389Z,12.40
2019-01-13T05:35:14.391Z,12.30
2019-01-13T05:36:14.397Z,13.00
2019-01-13T05:37:14.378Z,11.70
2019-01-13T05:38:14.358Z,12.20
2019-01-13T05:39:14.334Z,11.70
2019-01-13T05:40:14.324Z,12.10
2019-01-13T05:41:14.321Z,11.50
2019-01-13T05:42:14.338Z,13.40
2019-01-13T05:43:14.292Z,12.30
2019-01-13T05:44:14.291Z,12.30
2019-01-13T05:45:14.277Z,11.60
2019-01-13T05:46:14.272Z,12.60
2019-01-13T05:47:14.270Z,13.90
2019-01-13T05:48:14.249Z,12.50
2019-01-13T05:49:14.237Z,13.70
2019-01-13T05:50:14.271Z,13.50
2019-01-13T05:51:22.995Z,14.30
2019-01-13T05:52:14.342Z,14.80
2019-01-13T05:53:14.313Z,13.40
2019-01-13T05:54:14.303Z,14.90
2019-01-13T05:55:14.179Z,15.30
2019-01-13T05:56:14.160Z,18.30
2019-01-13T05:57:14.209Z,16.00
2019-01-13T05:58:14.164Z,15.50
2019-01-13T05:59:14.127Z,15.50
2019-01-13T06:00:14.128Z,15.50
2019-01-13T06:01:14.116Z,17.30
2019-01-13T06:02:14.093Z,16.80
2019-01-13T06:03:14.113Z,15.90
2019-01-13T06:04:14.069Z,15.10
2019-01-13T06:05:14.062Z,16.60
2019-01-13T06:06:14.063Z,15.00
2019-01-13T06:07:14.045Z,15.50
2019-01-13T06:08:14.066Z,16.60
2019-01-13T06:09:14.033Z,15.90
2019-01-13T06:10:14.009Z,16.50
2019-01-13T06:11:14.007Z,14.50
2019-01-13T06:12:14.012Z,16.50
2019-01-13T06:13:14.005Z,17.50
2019-01-13T06:14:13.968Z,15.60
2019-01-13T06:15:13.962Z,14.50
2019-01-13T06:16:13.995Z,13.40
2019-01-13T06:17:13.942Z,15.30
2019-01-13T06:18:13.953Z,13.10
2019-01-13T06:19:13.914Z,15.40
2019-01-13T06:20:13.907Z,15.20
2019-01-13T06:21:13.910Z,13.30
2019-01-13T06:22:13.892Z,15.30
2019-01-13T06:23:13.903Z,15.40
2019-01-13T06:24:13.883Z,14.40
2019-01-13T06:25:13.860Z,14.30
2019-01-13T06:26:22.890Z,15.40
2019-01-13T06:27:13.931Z,13.20
2019-01-13T06:28:14.007Z,14.50
2019-01-13T06:29:13.838Z,12.50
2019-01-13T06:30:13.833Z,15.30
2019-01-13T06:31:13.795Z,14.00
2019-01-13T06:32:13.794Z,15.10
2019-01-13T06:33:13.763Z,14.20
2019-01-13T06:34:21.467Z,15.20
2019-01-13T06:35:13.847Z,12.80
2019-01-13T06:36:21.483Z,12.90
2019-01-13T06:37:13.818Z,14.30
2019-01-13T06:38:14.957Z,13.30
2019-01-13T06:39:22.765Z,12.40
2019-01-13T06:40:13.816Z,18.10
2019-01-13T06:41:22.402Z,14.40
2019-01-13T06:42:13.778Z,14.10
2019-01-13T06:43:13.921Z,17.10
2019-01-13T06:44:13.733Z,13.40
2019-01-13T06:45:13.643Z,12.60
2019-01-13T06:46:22.332Z,14.00
2019-01-13T06:47:13.695Z,13.90
2019-01-13T06:48:22.421Z,13.70
2019-01-13T06:49:13.657Z,12.70
2019-01-13T06:50:13.841Z,12.40
2019-01-13T06:51:22.226Z,13.20
2019-01-13T06:52:13.671Z,12.50
2019-01-13T06:53:13.780Z,11.80
2019-01-13T06:54:13.586Z,11.30
2019-01-13T06:55:13.603Z,11.80
2019-01-13T06:56:23.568Z,11.20
2019-01-13T06:57:13.644Z,11.20
2019-01-13T06:58:13.698Z,10.10
2019-01-13T06:59:13.554Z,11.00
2019-01-13T07:00:13.523Z,10.20
2019-01-13T07:01:21.209Z,9.70
2019-01-13T07:02:13.561Z,11.60
2019-01-13T07:03:13.728Z,10.60
2019-01-13T07:04:22.429Z,10.80
2019-01-13T07:05:13.539Z,10.20
2019-01-13T07:06:13.560Z,14.10
2019-01-13T07:07:13.469Z,10.00
2019-01-13T07:08:13.400Z,10.00
2019-01-13T07:09:13.391Z,10.00
2019-01-13T07:10:22.353Z,9.70
2019-01-13T07:11:13.446Z,11.80
2019-01-13T07:12:13.533Z,9.30
2019-01-13T07:13:21.048Z,9.40
2019-01-13T07:14:13.413Z,11.20
2019-01-13T07:15:13.546Z,10.20
2019-01-13T07:16:13.357Z,8.40
2019-01-13T07:17:13.311Z,9.10
2019-01-13T07:18:13.294Z,11.50
2019-01-13T07:19:13.323Z,9.70
2019-01-13T07:20:13.273Z,10.50
2019-01-13T07:21:13.294Z,8.40
2019-01-13T07:22:13.270Z,9.30
2019-01-13T07:23:13.242Z,10.20
2019-01-13T07:24:20.920Z,8.80
2019-01-13T07:25:13.320Z,8.40
2019-01-13T07:26:13.467Z,8.30
2019-01-13T07:27:20.962Z,9.10
2019-01-13T07:28:13.288Z,7.90
2019-01-13T07:29:13.433Z,8.40
2019-01-13T07:30:13.219Z,8.80
2019-01-13T07:31:13.172Z,8.80
2019-01-13T07:32:20.863Z,7.70
2019-01-13T07:33:13.284Z,7.40
2019-01-13T07:34:20.844Z,7.90
2019-01-13T07:35:13.212Z,8.50
2019-01-13T07:36:13.295Z,8.90
2019-01-13T07:37:13.181Z,8.60
2019-01-13T07:38:13.086Z,8.50
2019-01-13T07:39:20.859Z,7.70
2019-01-13T07:40:13.135Z,8.10
2019-01-13T07:42:22.949Z,8.30
2019-01-13T07:43:22.905Z,8.00
2019-01-13T07:44:23.013Z,9.30
2019-01-13T07:45:22.796Z,9.50
2019-01-13T07:46:22.779Z,8.60
2019-01-13T07:47:22.778Z,8.30
2019-01-13T07:49:54.275Z,9.30
2019-01-13T07:50:57.290Z,9.00
2019-01-13T07:51:53.581Z,8.10
2019-01-13T07:52:53.604Z,8.20
2019-01-13T07:53:53.675Z,9.00
2019-01-13T07:54:54.037Z,8.90
2019-01-13T07:55:53.610Z,8.60
2019-01-13T07:56:53.555Z,9.20
2019-01-13T07:57:53.692Z,8.80
2019-01-13T07:58:53.496Z,8.10
2019-01-13T07:59:53.660Z,9.50
2019-01-13T08:00:53.492Z,8.40
2019-01-13T08:01:53.526Z,8.30
2019-01-13T08:02:53.589Z,8.90
2019-01-13T08:03:53.444Z,8.40
2019-01-13T08:04:53.622Z,9.10
2019-01-13T08:05:53.446Z,8.90
2019-01-13T08:06:53.521Z,8.50
2019-01-13T08:07:53.672Z,9.10
2019-01-13T08:08:53.489Z,9.00
2019-01-13T08:09:53.384Z,10.40
2019-01-13T08:10:53.382Z,8.90
2019-01-13T08:11:56.304Z,9.30
2019-01-13T08:12:54.471Z,10.70
2019-01-13T08:13:53.442Z,9.20
2019-01-13T08:14:53.307Z,10.70
2019-01-13T08:15:53.477Z,10.60
2019-01-13T08:16:53.362Z,8.40
2019-01-13T08:17:53.330Z,9.50
2019-01-13T08:18:53.329Z,9.30
2019-01-13T08:19:53.357Z,7.40
2019-01-13T08:20:53.386Z,8.40
2019-01-13T08:21:53.244Z,7.50
2019-01-13T08:22:53.281Z,9.20
2019-01-13T08:23:53.244Z,9.00
2019-01-13T08:24:53.298Z,9.70
2019-01-13T08:25:53.199Z,8.80
2019-01-13T08:26:53.192Z,9.90
2019-01-13T08:27:53.202Z,9.00
2019-01-13T08:28:54.309Z,9.50
2019-01-13T08:29:54.014Z,9.40
2019-01-13T08:30:53.180Z,8.20
2019-01-13T08:31:53.281Z,11.50
2019-01-13T08:32:53.267Z,8.90
2019-01-13T08:33:54.291Z,10.10
2019-01-13T08:34:53.477Z,10.00
2019-01-13T08:35:53.080Z,10.50
2019-01-13T08:36:53.365Z,12.00
2019-01-13T08:37:53.085Z,11.50
2019-01-13T08:38:53.132Z,10.00
2019-01-13T08:39:53.292Z,10.70
2019-01-13T08:40:53.034Z,10.00
2019-01-13T08:41:53.098Z,9.80
2019-01-13T08:42:53.072Z,9.40
2019-01-13T08:43:53.040Z,10.40
2019-01-13T08:44:53.104Z,14.30
2019-01-13T08:45:53.191Z,12.00
2019-01-13T08:46:53.041Z,11.70
2019-01-13T08:47:52.997Z,12.80
2019-01-13T08:48:52.947Z,10.70
2019-01-13T08:49:53.111Z,14.00
2019-01-13T08:50:53.007Z,14.60
2019-01-13T08:51:52.933Z,13.40
2019-01-13T08:52:52.948Z,15.50
2019-01-13T08:53:52.902Z,13.50
2019-01-13T08:54:52.984Z,14.90
2019-01-13T08:55:52.975Z,14.70
2019-01-13T08:56:52.868Z,14.20
2019-01-13T08:57:52.901Z,16.90
2019-01-13T08:58:52.886Z,15.00
2019-01-13T08:59:52.889Z,14.60
2019-01-13T09:00:52.874Z,13.90
2019-01-13T09:01:52.829Z,15.00
2019-01-13T09:02:52.799Z,17.10
2019-01-13T09:03:52.935Z,18.00
2019-01-13T09:04:52.986Z,17.10
2019-01-13T09:05:52.870Z,21.50
2019-01-13T09:06:52.910Z,17.90
2019-01-13T09:07:52.826Z,18.40
2019-01-13T09:08:53.647Z,16.70
2019-01-13T09:09:52.866Z,22.40
2019-01-13T09:10:52.986Z,20.50
2019-01-13T09:11:53.010Z,19.40
2019-01-13T09:12:56.852Z,20.50
2019-01-13T09:13:52.770Z,20.20
2019-01-13T09:14:52.769Z,20.40
2019-01-13T09:15:52.784Z,17.50
2019-01-13T09:16:53.066Z,18.60
2019-01-13T09:17:52.921Z,19.40
2019-01-13T09:18:53.114Z,16.00
2019-01-13T09:19:52.677Z,19.60
2019-01-13T09:20:52.888Z,17.80
2019-01-13T09:21:52.946Z,18.90
2019-01-13T09:22:52.743Z,17.40
2019-01-13T09:23:52.804Z,19.40
2019-01-13T09:24:52.737Z,21.00
2019-01-13T09:25:52.779Z,17.60
2019-01-13T09:26:52.910Z,17.10
2019-01-13T09:27:52.638Z,18.50
2019-01-13T09:28:52.551Z,17.80
2019-01-13T09:29:52.654Z,19.80
2019-01-13T09:30:52.635Z,19.70
2019-01-13T09:31:52.667Z,22.40
2019-01-13T09:32:52.530Z,22.10
2019-01-13T09:33:52.580Z,22.20
2019-01-13T09:34:52.503Z,20.90
2019-01-13T09:35:52.482Z,24.10
2019-01-13T09:36:52.506Z,22.70
2019-01-13T09:37:52.654Z,24.20
2019-01-13T09:38:52.606Z,23.50
2019-01-13T09:39:52.531Z,21.20
2019-01-13T09:40:52.461Z,21.60
2019-01-13T09:41:52.520Z,22.20
2019-01-13T09:42:52.405Z,21.70
2019-01-13T09:43:52.407Z,23.70
2019-01-13T09:44:52.407Z,26.70
2019-01-13T09:45:52.486Z,24.70
2019-01-13T09:46:52.427Z,27.10
2019-01-13T09:47:52.452Z,25.60
2019-01-13T09:48:52.372Z,31.30
2019-01-13T09:49:52.430Z,24.10
2019-01-13T09:50:52.393Z,31.90
2019-01-13T09:51:52.368Z,30.60
2019-01-13T09:52:52.347Z,27.40
2019-01-13T09:53:52.538Z,30.40
2019-01-13T09:54:52.450Z,29.90
2019-01-13T09:55:52.302Z,33.40
2019-01-13T09:56:52.335Z,30.90
2019-01-13T09:57:52.262Z,31.20
2019-01-13T09:58:52.380Z,32.30
2019-01-13T09:59:52.339Z,32.80
2019-01-13T10:00:52.293Z,32.60
2019-01-13T10:01:52.243Z,36.10
2019-01-13T10:02:52.174Z,31.70
2019-01-13T10:03:52.246Z,36.10
2019-01-13T10:04:52.208Z,35.90
2019-01-13T10:05:52.172Z,34.50
2019-01-13T10:06:52.208Z,30.20
2019-01-13T10:07:52.251Z,39.90
2019-01-13T10:08:52.203Z,35.70
2019-01-13T10:09:52.179Z,30.10
2019-01-13T10:10:52.144Z,36.40
2019-01-13T10:11:52.191Z,35.70
2019-01-13T10:12:52.266Z,36.80
2019-01-13T10:13:52.152Z,35.10
2019-01-13T10:14:52.094Z,34.30
2019-01-13T10:15:52.189Z,34.00
2019-01-13T10:16:52.063Z,34.50
2019-01-13T10:17:52.092Z,37.00
2019-01-13T10:18:52.044Z,35.60
2019-01-13T10:19:52.080Z,35.20
2019-01-13T10:20:52.000Z,36.00
2019-01-13T10:21:51.978Z,36.30
2019-01-13T10:22:52.064Z,37.50
2019-01-13T10:23:52.118Z,35.90
2019-01-13T10:24:52.126Z,36.30
2019-01-13T10:25:52.080Z,37.70
2019-01-13T10:26:51.944Z,34.20
2019-01-13T10:27:51.921Z,32.80
2019-01-13T10:28:51.894Z,38.20
2019-01-13T10:29:51.874Z,35.30
2019-01-13T10:30:51.983Z,34.20
2019-01-13T10:31:52.047Z,37.00
2019-01-13T10:32:54.609Z,32.70
2019-01-13T10:33:51.945Z,35.10
2019-01-13T10:34:51.995Z,32.30
2019-01-13T10:35:51.919Z,36.20
2019-01-13T10:36:51.860Z,32.60
2019-01-13T10:37:51.893Z,32.80
2019-01-13T10:38:51.835Z,35.50
2019-01-13T10:39:51.823Z,35.90
2019-01-13T10:40:51.894Z,36.60
2019-01-13T10:41:51.887Z,37.40
2019-01-13T10:42:51.905Z,38.50
2019-01-13T10:43:51.818Z,34.40
2019-01-13T10:44:51.754Z,34.30
2019-01-13T10:45:51.905Z,41.10
2019-01-13T10:46:51.820Z,30.80
2019-01-13T10:47:51.736Z,33.40
2019-01-13T10:48:51.703Z,31.30
2019-01-13T10:49:51.782Z,30.80
2019-01-13T10:50:51.712Z,31.90
2019-01-13T10:51:51.705Z,33.50
2019-01-13T10:52:51.749Z,37.00
2019-01-13T10:53:51.697Z,33.50
2019-01-13T10:54:51.694Z,33.20
2019-01-13T10:55:51.664Z,32.40
2019-01-13T10:56:51.720Z,30.50
2019-01-13T10:57:51.646Z,39.50
2019-01-13T10:58:51.634Z,27.70
2019-01-13T10:59:51.628Z,31.60
2019-01-13T11:00:51.720Z,31.50
2019-01-13T11:01:51.699Z,28.20
2019-01-13T11:02:51.559Z,34.30
2019-01-13T11:03:51.633Z,33.90
2019-01-13T11:04:51.562Z,31.90
2019-01-13T11:05:51.568Z,31.30
2019-01-13T11:06:51.539Z,34.40
2019-01-13T11:07:51.546Z,36.70
2019-01-13T11:08:51.517Z,37.20
2019-01-13T11:09:51.591Z,31.30
2019-01-13T11:10:51.577Z,38.30
2019-01-13T11:11:51.507Z,30.20
2019-01-13T11:12:51.481Z,30.10
2019-01-13T11:13:51.618Z,33.60
2019-01-13T11:14:51.420Z,30.50
2019-01-13T11:15:51.558Z,32.50
2019-01-13T11:16:51.430Z,41.40
2019-01-13T11:17:51.467Z,36.00
2019-01-13T11:18:51.434Z,31.00
2019-01-13T11:19:51.408Z,38.50
2019-01-13T11:20:51.466Z,34.10
2019-01-13T11:21:51.470Z,36.60
2019-01-13T11:22:51.425Z,46.80
2019-01-13T11:23:51.345Z,47.20
2019-01-13T11:24:51.406Z,36.90
2019-01-13T11:25:51.350Z,30.90
2019-01-13T11:26:51.395Z,30.20
2019-01-13T11:27:51.330Z,31.20
2019-01-13T11:28:51.290Z,33.50
2019-01-13T11:29:51.294Z,30.00
2019-01-13T11:30:51.258Z,28.50
2019-01-13T11:31:51.225Z,30.30
2019-01-13T11:32:51.468Z,31.80
2019-01-13T11:33:51.269Z,28.40
2019-01-13T11:34:51.216Z,24.50
2019-01-13T11:35:51.262Z,22.10
2019-01-13T11:36:51.323Z,32.10
2019-01-13T11:37:51.274Z,24.90
2019-01-13T11:38:51.271Z,27.60
2019-01-13T11:39:51.139Z,22.50
2019-01-13T11:40:51.120Z,27.10
2019-01-13T11:41:51.113Z,25.70
2019-01-13T11:42:51.108Z,26.20
2019-01-13T11:43:51.140Z,24.30
2019-01-13T11:44:51.082Z,24.40
2019-01-13T11:45:51.072Z,26.70
2019-01-13T11:46:51.063Z,26.40
2019-01-13T11:47:51.049Z,24.00
2019-01-13T11:48:51.109Z,28.70
2019-01-13T11:49:51.061Z,23.00
2019-01-13T11:50:51.043Z,21.70
2019-01-13T11:51:51.047Z,23.00
2019-01-13T11:52:50.994Z,23.40
2019-01-13T11:53:51.022Z,22.00
2019-01-13T11:54:51.000Z,25.00
2019-01-13T11:55:51.001Z,21.50
2019-01-13T11:56:50.962Z,21.40
2019-01-13T11:57:50.944Z,21.00
2019-01-13T11:58:51.018Z,26.00
2019-01-13T11:59:50.924Z,21.40
2019-01-13T12:00:50.907Z,20.60
2019-01-13T12:01:50.896Z,19.70
2019-01-13T12:02:50.892Z,23.40
2019-01-13T12:03:50.892Z,32.00
2019-01-13T12:04:50.890Z,28.10
2019-01-13T12:05:50.911Z,25.30
2019-01-13T12:06:50.842Z,24.70
2019-01-13T12:07:50.860Z,24.30
2019-01-13T12:08:50.865Z,28.50
2019-01-13T12:09:50.847Z,31.10
2019-01-13T12:10:50.812Z,23.70
2019-01-13T12:11:50.794Z,23.30
2019-01-13T12:12:50.968Z,24.30
2019-01-13T12:13:50.816Z,29.10
2019-01-13T12:14:50.862Z,25.70
2019-01-13T12:15:50.811Z,19.30
2019-01-13T12:16:50.859Z,25.70
2019-01-13T12:17:50.764Z,22.80
2019-01-13T12:18:50.724Z,23.50
2019-01-13T12:19:50.800Z,19.80
2019-01-13T12:20:50.698Z,16.40
2019-01-13T12:21:50.722Z,18.10
2019-01-13T12:22:50.693Z,15.10
2019-01-13T12:23:50.735Z,17.50
2019-01-13T12:24:50.791Z,15.30
2019-01-13T12:25:52.741Z,15.50
2019-01-13T12:26:50.799Z,11.90
2019-01-13T12:27:50.832Z,13.10
2019-01-13T12:28:50.671Z,13.10
2019-01-13T12:29:50.723Z,13.50
2019-01-13T12:30:50.618Z,15.10
2019-01-13T12:31:50.576Z,15.90
2019-01-13T12:32:50.568Z,14.40
2019-01-13T12:33:50.591Z,14.10
2019-01-13T12:34:50.673Z,14.20
2019-01-13T12:35:50.562Z,11.90
2019-01-13T12:36:50.527Z,12.50
2019-01-13T12:37:50.531Z,11.80
2019-01-13T12:38:50.508Z,12.90
2019-01-13T12:39:50.521Z,12.50
2019-01-13T12:40:50.520Z,12.20
2019-01-13T12:41:50.486Z,12.20
2019-01-13T12:42:50.473Z,11.80
2019-01-13T12:43:50.453Z,9.00
2019-01-13T12:44:50.458Z,11.30
2019-01-13T12:45:50.467Z,10.30
2019-01-13T12:46:50.428Z,10.30
2019-01-13T12:47:50.412Z,10.20
2019-01-13T12:48:50.416Z,7.70
2019-01-13T12:49:50.417Z,9.70
2019-01-13T12:50:50.416Z,9.10
2019-01-13T12:51:50.370Z,7.70
2019-01-13T12:52:50.367Z,10.50
2019-01-13T12:53:50.351Z,7.70
2019-01-13T12:54:51.614Z,9.60
2019-01-13T12:55:50.344Z,10.20
2019-01-13T12:56:50.338Z,9.80
2019-01-13T12:57:50.335Z,9.80
2019-01-13T12:58:50.296Z,8.90
2019-01-13T12:59:50.283Z,8.60
2019-01-13T13:00:50.363Z,10.90
2019-01-13T13:01:50.354Z,9.70
2019-01-13T13:02:50.268Z,8.10
2019-01-13T13:03:50.243Z,8.00
2019-01-13T13:04:50.233Z,9.50